sensor_id;sensor_type;location;lat;lon;timestamp;temperature;humidity
9223;DHT22;7557;51.698;3.942;2023-03-23T00:02:27;12.80;99.90
9223;DHT22;7557;51.698;3.942;2023-03-23T00:04:55;12.80;99.90
9223;DHT22;7557;51.698;3.942;2023-03-23T00:07:23;12.80;99.90
9223;DHT22;7557;51.698;3.942;2023-03-23T00:09:54;12.80;99.90
9223;DHT22;7557;51.698;3.942;2023-03-23T00:12:23;12.80;99.90
9223;DHT22;7557;51.698;3.942;2023-03-23T00:15:00;12.80;99.90
9223;DHT22;7557;51.698;3.942;2023-03-23T00:17:29;12.80;99.90
9223;DHT22;7557;51.698;3.942;2023-03-23T00:19:58;12.80;99.90
9223;DHT22;7557;51.698;3.942;2023-03-23T00:22:27;12.80;99.90
9223;DHT22;7557;51.698;3.942;2023-03-23T00:24:55;12.80;99.90
9223;DHT22;7557;51.698;3.942;2023-03-23T00:27:23;12.80;99.90
9223;DHT22;7557;51.698;3.942;2023-03-23T00:29:51;12.80;99.90
9223;DHT22;7557;51.698;3.942;2023-03-23T00:32:22;12.80;99.90
9223;DHT22;7557;51.698;3.942;2023-03-23T00:34:53;12.80;99.90
9223;DHT22;7557;51.698;3.942;2023-03-23T00:37:20;12.70;99.90
9223;DHT22;7557;51.698;3.942;2023-03-23T00:39:48;12.80;99.90
9223;DHT22;7557;51.698;3.942;2023-03-23T00:42:18;12.70;99.90
9223;DHT22;7557;51.698;3.942;2023-03-23T00:44:47;12.70;99.90
9223;DHT22;7557;51.698;3.942;2023-03-23T00:47:14;12.70;99.90
9223;DHT22;7557;51.698;3.942;2023-03-23T00:49:44;12.70;99.90
9223;DHT22;7557;51.698;3.942;2023-03-23T00:52:12;12.70;99.90
9223;DHT22;7557;51.698;3.942;2023-03-23T00:54:39;12.70;99.90
9223;DHT22;7557;51.698;3.942;2023-03-23T00:57:07;12.70;99.90
9223;DHT22;7557;51.698;3.942;2023-03-23T00:59:36;12.70;99.90
9223;DHT22;7557;51.698;3.942;2023-03-23T01:02:03;12.70;99.90
9223;DHT22;7557;51.698;3.942;2023-03-23T01:04:31;12.70;99.90
9223;DHT22;7557;51.698;3.942;2023-03-23T01:07:04;12.70;99.90
9223;DHT22;7557;51.698;3.942;2023-03-23T01:09:34;12.70;99.90
9223;DHT22;7557;51.698;3.942;2023-03-23T01:12:02;12.70;99.90
9223;DHT22;7557;51.698;3.942;2023-03-23T01:14:29;12.70;99.90
9223;DHT22;7557;51.698;3.942;2023-03-23T01:16:56;12.70;99.90
9223;DHT22;7557;51.698;3.942;2023-03-23T01:19:24;12.70;99.90
9223;DHT22;7557;51.698;3.942;2023-03-23T01:21:51;12.70;99.90
9223;DHT22;7557;51.698;3.942;2023-03-23T01:24:21;12.70;99.90
9223;DHT22;7557;51.698;3.942;2023-03-23T01:26:48;12.70;99.90
9223;DHT22;7557;51.698;3.942;2023-03-23T01:29:16;12.70;99.90
9223;DHT22;7557;51.698;3.942;2023-03-23T01:31:44;12.70;99.90
9223;DHT22;7557;51.698;3.942;2023-03-23T01:34:11;12.70;99.90
9223;DHT22;7557;51.698;3.942;2023-03-23T01:36:39;12.70;99.90
9223;DHT22;7557;51.698;3.942;2023-03-23T01:39:07;12.70;99.90
9223;DHT22;7557;51.698;3.942;2023-03-23T01:41:36;12.80;99.90
9223;DHT22;7557;51.698;3.942;2023-03-23T01:44:59;12.70;99.90
9223;DHT22;7557;51.698;3.942;2023-03-23T01:46:55;12.70;99.90
9223;DHT22;7557;51.698;3.942;2023-03-23T01:49:26;12.70;99.90
9223;DHT22;7557;51.698;3.942;2023-03-23T01:51:58;12.70;99.90
9223;DHT22;7557;51.698;3.942;2023-03-23T01:54:27;12.70;99.90
9223;DHT22;7557;51.698;3.942;2023-03-23T01:56:59;12.80;99.90
9223;DHT22;7557;51.698;3.942;2023-03-23T01:59:30;12.70;99.90
9223;DHT22;7557;51.698;3.942;2023-03-23T02:02:00;12.70;99.90
9223;DHT22;7557;51.698;3.942;2023-03-23T02:04:29;12.70;99.90
9223;DHT22;7557;51.698;3.942;2023-03-23T02:06:57;12.70;99.90
9223;DHT22;7557;51.698;3.942;2023-03-23T02:09:25;12.70;99.90
9223;DHT22;7557;51.698;3.942;2023-03-23T02:11:53;12.70;99.90
9223;DHT22;7557;51.698;3.942;2023-03-23T02:14:23;12.80;99.90
9223;DHT22;7557;51.698;3.942;2023-03-23T02:16:55;12.80;99.90
9223;DHT22;7557;51.698;3.942;2023-03-23T02:19:44;12.70;99.90
9223;DHT22;7557;51.698;3.942;2023-03-23T02:22:42;12.70;99.90
9223;DHT22;7557;51.698;3.942;2023-03-23T02:25:28;12.70;99.90
9223;DHT22;7557;51.698;3.942;2023-03-23T02:31:19;12.80;99.90
9223;DHT22;7557;51.698;3.942;2023-03-23T02:33:54;12.70;99.90
9223;DHT22;7557;51.698;3.942;2023-03-23T02:36:28;12.70;99.90
9223;DHT22;7557;51.698;3.942;2023-03-23T02:39:00;12.80;99.90
9223;DHT22;7557;51.698;3.942;2023-03-23T02:41:37;12.80;99.90
9223;DHT22;7557;51.698;3.942;2023-03-23T02:44:07;12.80;99.90
9223;DHT22;7557;51.698;3.942;2023-03-23T02:46:36;12.80;99.90
9223;DHT22;7557;51.698;3.942;2023-03-23T02:49:07;12.80;99.90
9223;DHT22;7557;51.698;3.942;2023-03-23T02:51:37;12.80;99.90
9223;DHT22;7557;51.698;3.942;2023-03-23T02:54:06;12.80;99.90
9223;DHT22;7557;51.698;3.942;2023-03-23T02:56:35;12.80;99.90
9223;DHT22;7557;51.698;3.942;2023-03-23T02:59:03;12.80;99.90
9223;DHT22;7557;51.698;3.942;2023-03-23T03:01:54;12.80;99.90
9223;DHT22;7557;51.698;3.942;2023-03-23T03:04:25;12.80;99.90
9223;DHT22;7557;51.698;3.942;2023-03-23T03:07:03;12.80;99.90
9223;DHT22;7557;51.698;3.942;2023-03-23T03:09:41;12.80;99.90
9223;DHT22;7557;51.698;3.942;2023-03-23T03:12:14;12.70;99.90
9223;DHT22;7557;51.698;3.942;2023-03-23T03:14:48;12.70;99.90
9223;DHT22;7557;51.698;3.942;2023-03-23T03:17:22;12.70;99.90
9223;DHT22;7557;51.698;3.942;2023-03-23T03:19:55;12.70;99.90
9223;DHT22;7557;51.698;3.942;2023-03-23T03:22:25;12.70;99.90
9223;DHT22;7557;51.698;3.942;2023-03-23T03:24:56;12.70;99.90
9223;DHT22;7557;51.698;3.942;2023-03-23T03:27:25;12.70;99.90
9223;DHT22;7557;51.698;3.942;2023-03-23T03:29:56;12.70;99.90
9223;DHT22;7557;51.698;3.942;2023-03-23T03:32:29;12.70;99.90
9223;DHT22;7557;51.698;3.942;2023-03-23T03:35:01;12.70;99.90
9223;DHT22;7557;51.698;3.942;2023-03-23T03:37:34;12.70;99.90
9223;DHT22;7557;51.698;3.942;2023-03-23T03:40:05;12.70;99.90
9223;DHT22;7557;51.698;3.942;2023-03-23T03:42:37;12.70;99.90
9223;DHT22;7557;51.698;3.942;2023-03-23T03:45:07;12.60;99.90
9223;DHT22;7557;51.698;3.942;2023-03-23T03:47:35;12.60;99.90
9223;DHT22;7557;51.698;3.942;2023-03-23T03:50:04;12.60;99.90
9223;DHT22;7557;51.698;3.942;2023-03-23T03:52:33;12.60;99.90
9223;DHT22;7557;51.698;3.942;2023-03-23T03:55:01;12.60;99.90
9223;DHT22;7557;51.698;3.942;2023-03-23T03:57:29;12.50;99.90
9223;DHT22;7557;51.698;3.942;2023-03-23T03:59:57;12.50;99.90
9223;DHT22;7557;51.698;3.942;2023-03-23T04:02:24;12.50;99.90
9223;DHT22;7557;51.698;3.942;2023-03-23T04:04:52;12.50;99.90
9223;DHT22;7557;51.698;3.942;2023-03-23T04:07:21;12.50;99.90
9223;DHT22;7557;51.698;3.942;2023-03-23T04:09:52;12.50;99.90
9223;DHT22;7557;51.698;3.942;2023-03-23T04:12:20;12.40;99.90
9223;DHT22;7557;51.698;3.942;2023-03-23T04:14:48;12.40;99.90
9223;DHT22;7557;51.698;3.942;2023-03-23T04:17:17;12.30;99.90
9223;DHT22;7557;51.698;3.942;2023-03-23T04:19:45;12.30;99.90
9223;DHT22;7557;51.698;3.942;2023-03-23T04:22:13;12.30;99.90
9223;DHT22;7557;51.698;3.942;2023-03-23T04:24:43;12.30;99.90
9223;DHT22;7557;51.698;3.942;2023-03-23T04:27:11;12.20;99.90
9223;DHT22;7557;51.698;3.942;2023-03-23T04:29:39;12.20;99.90
9223;DHT22;7557;51.698;3.942;2023-03-23T04:32:06;12.20;99.90
9223;DHT22;7557;51.698;3.942;2023-03-23T04:34:34;12.20;99.90
9223;DHT22;7557;51.698;3.942;2023-03-23T04:37:01;12.10;99.90
9223;DHT22;7557;51.698;3.942;2023-03-23T04:39:29;12.10;99.90
9223;DHT22;7557;51.698;3.942;2023-03-23T04:42:00;12.10;99.90
9223;DHT22;7557;51.698;3.942;2023-03-23T04:44:28;12.10;99.90
9223;DHT22;7557;51.698;3.942;2023-03-23T04:47:00;12.10;99.90
9223;DHT22;7557;51.698;3.942;2023-03-23T04:49:28;12.10;99.90
9223;DHT22;7557;51.698;3.942;2023-03-23T04:51:55;12.10;99.90
9223;DHT22;7557;51.698;3.942;2023-03-23T04:54:23;12.10;99.90
9223;DHT22;7557;51.698;3.942;2023-03-23T04:56:52;12.10;99.90
9223;DHT22;7557;51.698;3.942;2023-03-23T04:59:21;12.10;99.90
9223;DHT22;7557;51.698;3.942;2023-03-23T05:01:54;12.10;99.90
9223;DHT22;7557;51.698;3.942;2023-03-23T05:04:22;12.10;99.90
9223;DHT22;7557;51.698;3.942;2023-03-23T05:06:51;12.10;99.90
9223;DHT22;7557;51.698;3.942;2023-03-23T05:09:19;12.10;99.90
9223;DHT22;7557;51.698;3.942;2023-03-23T05:11:46;12.10;99.90
9223;DHT22;7557;51.698;3.942;2023-03-23T05:14:14;12.10;99.90
9223;DHT22;7557;51.698;3.942;2023-03-23T05:16:43;12.10;99.90
9223;DHT22;7557;51.698;3.942;2023-03-23T05:19:14;12.00;99.90
9223;DHT22;7557;51.698;3.942;2023-03-23T05:21:42;12.00;99.90
9223;DHT22;7557;51.698;3.942;2023-03-23T05:24:10;12.00;99.90
9223;DHT22;7557;51.698;3.942;2023-03-23T05:26:38;12.00;99.90
9223;DHT22;7557;51.698;3.942;2023-03-23T05:29:05;12.00;99.90
9223;DHT22;7557;51.698;3.942;2023-03-23T05:31:33;12.00;99.90
9223;DHT22;7557;51.698;3.942;2023-03-23T05:34:02;12.00;99.90
9223;DHT22;7557;51.698;3.942;2023-03-23T05:36:30;12.00;99.90
9223;DHT22;7557;51.698;3.942;2023-03-23T05:38:57;12.00;99.90
9223;DHT22;7557;51.698;3.942;2023-03-23T05:41:26;12.00;99.90
9223;DHT22;7557;51.698;3.942;2023-03-23T05:43:53;12.00;99.90
9223;DHT22;7557;51.698;3.942;2023-03-23T05:46:23;12.00;99.90
9223;DHT22;7557;51.698;3.942;2023-03-23T05:48:51;12.00;99.90
9223;DHT22;7557;51.698;3.942;2023-03-23T05:51:21;11.90;99.90
9223;DHT22;7557;51.698;3.942;2023-03-23T05:53:49;12.00;99.90
9223;DHT22;7557;51.698;3.942;2023-03-23T05:56:18;12.00;99.90
9223;DHT22;7557;51.698;3.942;2023-03-23T05:58:45;11.90;99.90
9223;DHT22;7557;51.698;3.942;2023-03-23T06:01:12;11.90;99.90
9223;DHT22;7557;51.698;3.942;2023-03-23T06:03:42;11.90;99.90
9223;DHT22;7557;51.698;3.942;2023-03-23T06:06:12;11.90;99.90
9223;DHT22;7557;51.698;3.942;2023-03-23T06:08:41;11.90;99.90
9223;DHT22;7557;51.698;3.942;2023-03-23T06:11:08;11.90;99.90
9223;DHT22;7557;51.698;3.942;2023-03-23T06:13:36;11.90;99.90
9223;DHT22;7557;51.698;3.942;2023-03-23T06:16:04;11.90;99.90
9223;DHT22;7557;51.698;3.942;2023-03-23T06:18:32;11.90;99.90
9223;DHT22;7557;51.698;3.942;2023-03-23T06:21:02;11.90;99.90
9223;DHT22;7557;51.698;3.942;2023-03-23T06:23:30;11.90;99.90
9223;DHT22;7557;51.698;3.942;2023-03-23T06:26:01;11.90;99.90
9223;DHT22;7557;51.698;3.942;2023-03-23T06:28:29;11.90;99.90
9223;DHT22;7557;51.698;3.942;2023-03-23T06:30:59;11.90;99.90
9223;DHT22;7557;51.698;3.942;2023-03-23T06:33:27;11.90;99.90
9223;DHT22;7557;51.698;3.942;2023-03-23T06:35:55;11.90;99.90
9223;DHT22;7557;51.698;3.942;2023-03-23T06:38:23;11.90;99.90
9223;DHT22;7557;51.698;3.942;2023-03-23T06:40:52;11.80;99.90
9223;DHT22;7557;51.698;3.942;2023-03-23T06:43:21;11.80;99.90
9223;DHT22;7557;51.698;3.942;2023-03-23T06:45:49;11.80;99.90
9223;DHT22;7557;51.698;3.942;2023-03-23T06:48:17;11.80;99.90
9223;DHT22;7557;51.698;3.942;2023-03-23T06:50:45;11.80;99.90
9223;DHT22;7557;51.698;3.942;2023-03-23T06:53:14;11.80;99.90
9223;DHT22;7557;51.698;3.942;2023-03-23T06:55:43;11.80;99.90
9223;DHT22;7557;51.698;3.942;2023-03-23T06:58:11;11.80;99.90
9223;DHT22;7557;51.698;3.942;2023-03-23T07:00:40;11.70;99.90
9223;DHT22;7557;51.698;3.942;2023-03-23T07:03:08;11.70;99.90
9223;DHT22;7557;51.698;3.942;2023-03-23T07:05:36;11.70;99.90
9223;DHT22;7557;51.698;3.942;2023-03-23T07:08:04;11.70;99.90
9223;DHT22;7557;51.698;3.942;2023-03-23T07:10:31;11.70;99.90
9223;DHT22;7557;51.698;3.942;2023-03-23T07:12:59;11.70;99.90
9223;DHT22;7557;51.698;3.942;2023-03-23T07:15:27;11.70;99.90
9223;DHT22;7557;51.698;3.942;2023-03-23T07:17:56;11.70;99.90
9223;DHT22;7557;51.698;3.942;2023-03-23T07:20:24;11.80;99.90
9223;DHT22;7557;51.698;3.942;2023-03-23T07:22:51;11.80;99.90
9223;DHT22;7557;51.698;3.942;2023-03-23T07:25:20;11.80;99.90
9223;DHT22;7557;51.698;3.942;2023-03-23T07:27:48;11.90;99.90
9223;DHT22;7557;51.698;3.942;2023-03-23T07:30:15;11.90;99.90
9223;DHT22;7557;51.698;3.942;2023-03-23T07:32:43;11.90;99.90
9223;DHT22;7557;51.698;3.942;2023-03-23T07:35:13;11.90;99.90
9223;DHT22;7557;51.698;3.942;2023-03-23T07:37:40;11.90;99.90
9223;DHT22;7557;51.698;3.942;2023-03-23T07:40:09;11.90;99.90
9223;DHT22;7557;51.698;3.942;2023-03-23T07:42:41;11.90;99.90
9223;DHT22;7557;51.698;3.942;2023-03-23T07:45:10;11.90;99.90
9223;DHT22;7557;51.698;3.942;2023-03-23T07:47:38;11.90;99.90
9223;DHT22;7557;51.698;3.942;2023-03-23T07:50:07;11.90;99.90
9223;DHT22;7557;51.698;3.942;2023-03-23T07:52:36;11.90;99.90
9223;DHT22;7557;51.698;3.942;2023-03-23T07:55:05;12.00;99.90
9223;DHT22;7557;51.698;3.942;2023-03-23T07:57:34;12.10;99.90
9223;DHT22;7557;51.698;3.942;2023-03-23T08:00:01;12.20;99.90
9223;DHT22;7557;51.698;3.942;2023-03-23T08:02:40;12.30;99.90
9223;DHT22;7557;51.698;3.942;2023-03-23T08:05:08;12.40;99.90
9223;DHT22;7557;51.698;3.942;2023-03-23T08:07:37;12.50;99.90
9223;DHT22;7557;51.698;3.942;2023-03-23T08:10:07;12.60;99.90
9223;DHT22;7557;51.698;3.942;2023-03-23T08:12:36;12.70;99.90
9223;DHT22;7557;51.698;3.942;2023-03-23T08:15:05;12.70;99.90
9223;DHT22;7557;51.698;3.942;2023-03-23T08:17:33;12.80;99.90
9223;DHT22;7557;51.698;3.942;2023-03-23T08:20:03;12.90;99.90
9223;DHT22;7557;51.698;3.942;2023-03-23T08:22:38;12.90;99.90
9223;DHT22;7557;51.698;3.942;2023-03-23T08:25:07;13.00;99.90
9223;DHT22;7557;51.698;3.942;2023-03-23T08:27:36;13.10;99.90
9223;DHT22;7557;51.698;3.942;2023-03-23T08:30:07;13.10;99.90
9223;DHT22;7557;51.698;3.942;2023-03-23T08:32:35;13.20;99.90
9223;DHT22;7557;51.698;3.942;2023-03-23T08:35:03;13.20;99.90
9223;DHT22;7557;51.698;3.942;2023-03-23T08:37:30;13.20;99.90
9223;DHT22;7557;51.698;3.942;2023-03-23T08:39:59;13.30;99.90
9223;DHT22;7557;51.698;3.942;2023-03-23T08:42:33;13.30;99.90
9223;DHT22;7557;51.698;3.942;2023-03-23T08:45:00;13.30;99.90
9223;DHT22;7557;51.698;3.942;2023-03-23T08:47:28;13.40;99.90
9223;DHT22;7557;51.698;3.942;2023-03-23T08:49:56;13.50;99.90
9223;DHT22;7557;51.698;3.942;2023-03-23T08:52:24;13.50;99.90
9223;DHT22;7557;51.698;3.942;2023-03-23T08:54:51;13.50;99.90
9223;DHT22;7557;51.698;3.942;2023-03-23T08:57:20;13.60;99.90
9223;DHT22;7557;51.698;3.942;2023-03-23T08:59:48;13.70;99.90
9223;DHT22;7557;51.698;3.942;2023-03-23T09:02:15;13.80;99.90
9223;DHT22;7557;51.698;3.942;2023-03-23T09:04:43;13.80;99.90
9223;DHT22;7557;51.698;3.942;2023-03-23T09:07:11;13.90;99.90
9223;DHT22;7557;51.698;3.942;2023-03-23T09:09:41;14.00;99.90
9223;DHT22;7557;51.698;3.942;2023-03-23T09:12:08;14.10;99.90
9223;DHT22;7557;51.698;3.942;2023-03-23T09:14:38;14.20;99.90
9223;DHT22;7557;51.698;3.942;2023-03-23T09:17:06;14.20;99.90
9223;DHT22;7557;51.698;3.942;2023-03-23T09:19:37;14.20;99.90
9223;DHT22;7557;51.698;3.942;2023-03-23T09:22:05;14.30;99.90
9223;DHT22;7557;51.698;3.942;2023-03-23T09:24:32;14.30;99.90
9223;DHT22;7557;51.698;3.942;2023-03-23T09:27:00;14.30;99.90
9223;DHT22;7557;51.698;3.942;2023-03-23T09:29:27;14.30;99.90
9223;DHT22;7557;51.698;3.942;2023-03-23T09:31:56;14.20;99.90
9223;DHT22;7557;51.698;3.942;2023-03-23T09:34:23;14.20;99.90
9223;DHT22;7557;51.698;3.942;2023-03-23T09:36:51;14.20;99.90
9223;DHT22;7557;51.698;3.942;2023-03-23T09:39:18;14.20;99.90
9223;DHT22;7557;51.698;3.942;2023-03-23T09:42:04;14.20;99.90
9223;DHT22;7557;51.698;3.942;2023-03-23T09:44:45;14.30;99.90
9223;DHT22;7557;51.698;3.942;2023-03-23T09:47:19;14.30;99.90
9223;DHT22;7557;51.698;3.942;2023-03-23T09:49:52;14.30;99.90
9223;DHT22;7557;51.698;3.942;2023-03-23T09:52:21;14.20;99.90
9223;DHT22;7557;51.698;3.942;2023-03-23T09:54:50;14.20;99.90
9223;DHT22;7557;51.698;3.942;2023-03-23T09:57:24;14.30;99.90
9223;DHT22;7557;51.698;3.942;2023-03-23T09:59:57;14.40;99.90
9223;DHT22;7557;51.698;3.942;2023-03-23T10:02:33;14.50;99.90
9223;DHT22;7557;51.698;3.942;2023-03-23T10:05:26;14.70;99.90
9223;DHT22;7557;51.698;3.942;2023-03-23T10:07:54;14.80;99.90
9223;DHT22;7557;51.698;3.942;2023-03-23T10:10:24;14.90;99.90
9223;DHT22;7557;51.698;3.942;2023-03-23T10:12:58;15.00;99.90
9223;DHT22;7557;51.698;3.942;2023-03-23T10:15:30;15.00;99.90
9223;DHT22;7557;51.698;3.942;2023-03-23T10:18:02;15.00;99.90
9223;DHT22;7557;51.698;3.942;2023-03-23T10:20:41;14.90;99.90
9223;DHT22;7557;51.698;3.942;2023-03-23T10:23:24;14.90;99.90
9223;DHT22;7557;51.698;3.942;2023-03-23T10:26:04;15.00;99.90
9223;DHT22;7557;51.698;3.942;2023-03-23T10:28:39;14.90;99.90
9223;DHT22;7557;51.698;3.942;2023-03-23T10:31:11;14.80;99.90
9223;DHT22;7557;51.698;3.942;2023-03-23T10:33:42;14.70;99.90
9223;DHT22;7557;51.698;3.942;2023-03-23T10:36:13;14.60;99.90
9223;DHT22;7557;51.698;3.942;2023-03-23T10:38:45;14.60;99.90
9223;DHT22;7557;51.698;3.942;2023-03-23T10:41:15;14.50;99.90
9223;DHT22;7557;51.698;3.942;2023-03-23T10:43:44;14.50;99.90
9223;DHT22;7557;51.698;3.942;2023-03-23T10:46:22;14.60;99.90
9223;DHT22;7557;51.698;3.942;2023-03-23T10:48:55;14.70;99.90
9223;DHT22;7557;51.698;3.942;2023-03-23T10:51:28;14.80;99.90
9223;DHT22;7557;51.698;3.942;2023-03-23T10:53:58;14.80;99.90
9223;DHT22;7557;51.698;3.942;2023-03-23T10:56:34;14.60;99.90
9223;DHT22;7557;51.698;3.942;2023-03-23T10:59:12;14.50;99.90
9223;DHT22;7557;51.698;3.942;2023-03-23T11:01:43;14.50;99.90
9223;DHT22;7557;51.698;3.942;2023-03-23T11:04:16;14.50;99.90
9223;DHT22;7557;51.698;3.942;2023-03-23T11:06:46;14.60;99.90
9223;DHT22;7557;51.698;3.942;2023-03-23T11:09:16;14.80;99.90
9223;DHT22;7557;51.698;3.942;2023-03-23T11:11:48;14.80;99.90
9223;DHT22;7557;51.698;3.942;2023-03-23T11:14:18;14.80;99.90
9223;DHT22;7557;51.698;3.942;2023-03-23T11:16:50;14.90;99.90
9223;DHT22;7557;51.698;3.942;2023-03-23T11:19:25;15.00;99.90
9223;DHT22;7557;51.698;3.942;2023-03-23T11:22:04;15.20;99.90
9223;DHT22;7557;51.698;3.942;2023-03-23T11:24:33;15.20;99.90
9223;DHT22;7557;51.698;3.942;2023-03-23T11:27:02;15.30;99.90
9223;DHT22;7557;51.698;3.942;2023-03-23T11:29:33;15.40;99.90
9223;DHT22;7557;51.698;3.942;2023-03-23T11:32:05;15.60;99.90
9223;DHT22;7557;51.698;3.942;2023-03-23T11:34:40;15.60;99.90
9223;DHT22;7557;51.698;3.942;2023-03-23T11:37:11;15.80;99.90
9223;DHT22;7557;51.698;3.942;2023-03-23T11:39:49;15.90;99.90
9223;DHT22;7557;51.698;3.942;2023-03-23T11:42:20;15.90;99.90
9223;DHT22;7557;51.698;3.942;2023-03-23T11:44:48;15.90;99.90
9223;DHT22;7557;51.698;3.942;2023-03-23T11:47:21;15.90;99.90
9223;DHT22;7557;51.698;3.942;2023-03-23T11:49:57;15.90;99.90
9223;DHT22;7557;51.698;3.942;2023-03-23T11:52:33;16.00;99.90
9223;DHT22;7557;51.698;3.942;2023-03-23T11:55:10;16.00;99.90
9223;DHT22;7557;51.698;3.942;2023-03-23T11:57:38;16.10;99.90
9223;DHT22;7557;51.698;3.942;2023-03-23T12:00:13;16.20;99.90
9223;DHT22;7557;51.698;3.942;2023-03-23T12:02:48;16.20;99.90
9223;DHT22;7557;51.698;3.942;2023-03-23T12:05:32;16.30;99.90
9223;DHT22;7557;51.698;3.942;2023-03-23T12:08:13;16.40;99.90
9223;DHT22;7557;51.698;3.942;2023-03-23T12:10:47;16.40;99.90
9223;DHT22;7557;51.698;3.942;2023-03-23T12:13:44;16.30;99.90
9223;DHT22;7557;51.698;3.942;2023-03-23T12:16:31;16.40;99.90
9223;DHT22;7557;51.698;3.942;2023-03-23T12:19:09;16.50;99.90
9223;DHT22;7557;51.698;3.942;2023-03-23T12:21:46;16.60;99.90
9223;DHT22;7557;51.698;3.942;2023-03-23T12:24:25;16.60;99.90
9223;DHT22;7557;51.698;3.942;2023-03-23T12:26:59;16.60;99.90
9223;DHT22;7557;51.698;3.942;2023-03-23T12:29:43;16.50;99.90
9223;DHT22;7557;51.698;3.942;2023-03-23T12:32:30;16.40;99.90
9223;DHT22;7557;51.698;3.942;2023-03-23T12:35:11;16.30;99.90
9223;DHT22;7557;51.698;3.942;2023-03-23T12:37:51;16.20;99.90
9223;DHT22;7557;51.698;3.942;2023-03-23T12:40:30;16.20;99.90
9223;DHT22;7557;51.698;3.942;2023-03-23T12:43:05;16.30;99.90
9223;DHT22;7557;51.698;3.942;2023-03-23T12:45:56;16.40;99.90
9223;DHT22;7557;51.698;3.942;2023-03-23T12:48:28;16.40;99.90
9223;DHT22;7557;51.698;3.942;2023-03-23T12:51:11;16.40;99.90
9223;DHT22;7557;51.698;3.942;2023-03-23T12:53:49;16.40;99.90
9223;DHT22;7557;51.698;3.942;2023-03-23T12:56:24;16.40;99.90
9223;DHT22;7557;51.698;3.942;2023-03-23T12:58:57;16.40;99.90
9223;DHT22;7557;51.698;3.942;2023-03-23T13:01:30;16.40;99.90
9223;DHT22;7557;51.698;3.942;2023-03-23T13:04:06;16.40;99.90
9223;DHT22;7557;51.698;3.942;2023-03-23T13:06:37;16.40;99.90
9223;DHT22;7557;51.698;3.942;2023-03-23T13:09:12;16.50;99.90
9223;DHT22;7557;51.698;3.942;2023-03-23T13:11:43;16.50;99.90
9223;DHT22;7557;51.698;3.942;2023-03-23T13:14:38;16.50;99.90
9223;DHT22;7557;51.698;3.942;2023-03-23T13:17:15;16.50;99.90
9223;DHT22;7557;51.698;3.942;2023-03-23T13:20:23;16.50;99.90
9223;DHT22;7557;51.698;3.942;2023-03-23T13:23:01;16.50;99.90
9223;DHT22;7557;51.698;3.942;2023-03-23T13:25:45;16.40;99.90
9223;DHT22;7557;51.698;3.942;2023-03-23T13:28:18;16.40;99.90
9223;DHT22;7557;51.698;3.942;2023-03-23T13:31:02;16.50;99.90
9223;DHT22;7557;51.698;3.942;2023-03-23T13:33:32;16.50;99.90
9223;DHT22;7557;51.698;3.942;2023-03-23T13:36:08;16.50;99.90
9223;DHT22;7557;51.698;3.942;2023-03-23T13:38:37;16.40;99.90
9223;DHT22;7557;51.698;3.942;2023-03-23T13:41:09;16.40;99.90
9223;DHT22;7557;51.698;3.942;2023-03-23T13:43:39;16.40;99.90
9223;DHT22;7557;51.698;3.942;2023-03-23T13:46:10;16.40;99.90
9223;DHT22;7557;51.698;3.942;2023-03-23T13:48:43;16.40;99.90
9223;DHT22;7557;51.698;3.942;2023-03-23T13:51:47;16.40;99.90
9223;DHT22;7557;51.698;3.942;2023-03-23T13:54:23;16.50;99.90
9223;DHT22;7557;51.698;3.942;2023-03-23T13:56:57;16.40;99.90
9223;DHT22;7557;51.698;3.942;2023-03-23T13:59:32;16.40;99.90
9223;DHT22;7557;51.698;3.942;2023-03-23T14:02:29;16.40;99.90
9223;DHT22;7557;51.698;3.942;2023-03-23T14:05:09;16.50;99.90
9223;DHT22;7557;51.698;3.942;2023-03-23T14:07:52;16.60;99.90
9223;DHT22;7557;51.698;3.942;2023-03-23T14:10:21;16.60;99.90
9223;DHT22;7557;51.698;3.942;2023-03-23T14:12:53;16.60;99.90
9223;DHT22;7557;51.698;3.942;2023-03-23T14:15:21;16.70;99.90
9223;DHT22;7557;51.698;3.942;2023-03-23T14:17:55;16.70;99.90
9223;DHT22;7557;51.698;3.942;2023-03-23T14:20:26;16.60;99.90
9223;DHT22;7557;51.698;3.942;2023-03-23T14:22:58;16.60;99.90
9223;DHT22;7557;51.698;3.942;2023-03-23T14:25:28;16.50;99.90
9223;DHT22;7557;51.698;3.942;2023-03-23T14:27:58;16.40;99.90
9223;DHT22;7557;51.698;3.942;2023-03-23T14:30:27;16.40;99.90
9223;DHT22;7557;51.698;3.942;2023-03-23T14:33:04;16.30;99.90
9223;DHT22;7557;51.698;3.942;2023-03-23T14:35:35;16.20;99.90
9223;DHT22;7557;51.698;3.942;2023-03-23T14:38:03;16.30;99.90
9223;DHT22;7557;51.698;3.942;2023-03-23T14:40:31;16.30;99.90
9223;DHT22;7557;51.698;3.942;2023-03-23T14:43:00;16.20;99.90
9223;DHT22;7557;51.698;3.942;2023-03-23T14:45:28;16.20;99.90
9223;DHT22;7557;51.698;3.942;2023-03-23T14:47:57;16.10;99.90
9223;DHT22;7557;51.698;3.942;2023-03-23T14:50:28;16.00;99.90
9223;DHT22;7557;51.698;3.942;2023-03-23T14:53:09;16.00;99.90
9223;DHT22;7557;51.698;3.942;2023-03-23T14:55:37;16.00;99.90
9223;DHT22;7557;51.698;3.942;2023-03-23T14:58:13;16.00;99.90
9223;DHT22;7557;51.698;3.942;2023-03-23T15:00:43;15.90;99.90
9223;DHT22;7557;51.698;3.942;2023-03-23T15:03:15;15.90;99.90
9223;DHT22;7557;51.698;3.942;2023-03-23T15:05:44;15.90;99.90
9223;DHT22;7557;51.698;3.942;2023-03-23T15:08:15;15.90;99.90
9223;DHT22;7557;51.698;3.942;2023-03-23T15:10:52;15.90;99.90
9223;DHT22;7557;51.698;3.942;2023-03-23T15:13:22;15.80;99.90
9223;DHT22;7557;51.698;3.942;2023-03-23T15:15:49;15.80;99.90
9223;DHT22;7557;51.698;3.942;2023-03-23T15:18:29;15.80;99.90
9223;DHT22;7557;51.698;3.942;2023-03-23T15:20:57;15.80;99.90
9223;DHT22;7557;51.698;3.942;2023-03-23T15:23:28;15.80;99.90
9223;DHT22;7557;51.698;3.942;2023-03-23T15:25:58;15.80;99.90
9223;DHT22;7557;51.698;3.942;2023-03-23T15:28:32;15.80;99.90
9223;DHT22;7557;51.698;3.942;2023-03-23T15:31:04;15.70;99.90
9223;DHT22;7557;51.698;3.942;2023-03-23T15:33:35;15.70;99.90
9223;DHT22;7557;51.698;3.942;2023-03-23T15:36:07;15.80;99.90
9223;DHT22;7557;51.698;3.942;2023-03-23T15:38:36;15.90;99.90
9223;DHT22;7557;51.698;3.942;2023-03-23T15:41:17;15.90;99.90
9223;DHT22;7557;51.698;3.942;2023-03-23T15:43:52;16.00;99.90
9223;DHT22;7557;51.698;3.942;2023-03-23T15:46:24;16.00;99.90
9223;DHT22;7557;51.698;3.942;2023-03-23T15:48:53;16.00;99.90
9223;DHT22;7557;51.698;3.942;2023-03-23T15:51:23;15.90;99.90
9223;DHT22;7557;51.698;3.942;2023-03-23T15:53:52;15.90;99.90
9223;DHT22;7557;51.698;3.942;2023-03-23T15:56:20;15.90;99.90
9223;DHT22;7557;51.698;3.942;2023-03-23T15:58:48;15.90;99.90
9223;DHT22;7557;51.698;3.942;2023-03-23T16:01:19;15.80;99.90
9223;DHT22;7557;51.698;3.942;2023-03-23T16:03:48;15.80;99.90
9223;DHT22;7557;51.698;3.942;2023-03-23T16:06:19;15.70;99.90
9223;DHT22;7557;51.698;3.942;2023-03-23T16:08:47;15.60;99.90
9223;DHT22;7557;51.698;3.942;2023-03-23T16:11:16;15.60;99.90
9223;DHT22;7557;51.698;3.942;2023-03-23T16:13:45;15.60;99.90
9223;DHT22;7557;51.698;3.942;2023-03-23T16:16:15;15.50;99.90
9223;DHT22;7557;51.698;3.942;2023-03-23T16:18:45;15.50;99.90
9223;DHT22;7557;51.698;3.942;2023-03-23T16:21:12;15.40;99.90
9223;DHT22;7557;51.698;3.942;2023-03-23T16:23:40;15.40;99.90
9223;DHT22;7557;51.698;3.942;2023-03-23T16:26:09;15.40;99.90
9223;DHT22;7557;51.698;3.942;2023-03-23T16:28:37;15.50;99.90
9223;DHT22;7557;51.698;3.942;2023-03-23T16:31:06;15.50;99.90
9223;DHT22;7557;51.698;3.942;2023-03-23T16:33:34;15.50;99.90